createdAt,value
2023-03-04T00:12:18.213Z,5445.64697
2023-03-04T00:27:20.555Z,5216.15625
2023-03-04T00:42:22.792Z,4411.03711
2023-03-04T00:57:25.014Z,2331.67505
2023-03-04T01:12:27.352Z,1283.11865
2023-03-04T01:27:29.599Z,573.09253
2023-03-04T01:42:31.863Z,131.862
2023-03-04T01:57:34.145Z,12.67904
2023-03-04T02:12:36.469Z,1.2679
2023-03-04T02:27:38.913Z,0
2023-03-04T02:42:41.228Z,0
2023-03-04T02:57:43.553Z,0
2023-03-04T03:12:45.806Z,0
2023-03-04T03:27:48.076Z,0
2023-03-04T03:42:50.308Z,0
2023-03-04T03:57:52.670Z,0
2023-03-04T04:12:54.991Z,0
2023-03-04T04:27:57.224Z,0
2023-03-04T04:42:59.465Z,0
2023-03-04T04:58:01.707Z,0
2023-03-04T05:13:04.135Z,0
2023-03-04T05:28:06.359Z,0
2023-03-04T05:43:08.579Z,0
2023-03-04T05:58:10.951Z,0
2023-03-04T06:13:13.187Z,0
2023-03-04T06:28:15.432Z,0
2023-03-04T06:43:17.732Z,0
2023-03-04T06:58:19.916Z,0
2023-03-04T07:13:22.167Z,0
2023-03-04T07:28:24.408Z,0
2023-03-04T07:43:26.848Z,0
2023-03-04T07:58:29.074Z,0
2023-03-04T08:13:31.571Z,0
2023-03-04T08:28:33.758Z,0
2023-03-04T08:43:36.028Z,0
2023-03-04T08:58:38.272Z,0
2023-03-04T09:13:40.543Z,0
2023-03-04T09:28:42.776Z,0
2023-03-04T09:43:45.064Z,0
2023-03-04T09:58:47.263Z,0
2023-03-04T10:13:49.492Z,0
2023-03-04T10:28:51.836Z,0
2023-03-04T10:43:54.099Z,0
2023-03-04T10:58:56.365Z,0
2023-03-04T11:13:58.727Z,0
2023-03-04T11:29:01.050Z,0
2023-03-04T11:44:03.240Z,0
2023-03-04T11:59:05.506Z,0
2023-03-04T12:14:07.727Z,0
2023-03-04T12:29:10.014Z,0
2023-03-04T12:44:12.238Z,0
2023-03-04T12:59:14.537Z,0
2023-03-04T13:14:16.774Z,0
2023-03-04T13:29:19.256Z,0
2023-03-04T13:44:21.486Z,0
2023-03-04T13:59:23.842Z,1.2679
2023-03-04T14:14:26.104Z,34.2334
2023-03-04T14:29:28.311Z,202.86461
2023-03-04T14:44:30.582Z,806.38684
2023-03-04T14:59:32.828Z,1560.78955
2023-03-04T15:14:35.082Z,2420.42847
2023-03-04T15:29:37.273Z,3680.72485
2023-03-04T15:44:39.508Z,4697.5835
2023-03-04T15:59:41.843Z,7715.19482
2023-03-04T16:14:44.246Z,17876.17578
2023-03-04T16:29:46.537Z,24603.67383
2023-03-04T16:44:48.775Z,10092.51465
2023-03-04T16:59:51.030Z,9705.80371
2023-03-04T17:14:53.317Z,11269.12891
2023-03-04T17:29:55.621Z,15006.90918
2023-03-04T17:44:57.879Z,11811.79199
2023-03-04T18:00:00.108Z,11350.27441
2023-03-04T18:15:02.386Z,11418.74121
2023-03-04T18:30:04.669Z,14337.45605
2023-03-04T18:45:06.914Z,15031
2023-03-04T19:00:09.268Z,16868.19141
2023-03-04T19:15:11.520Z,20973.66406
2023-03-04T19:30:13.724Z,28568.4082
2023-03-04T19:45:15.977Z,19950.4668
2023-03-04T20:00:18.269Z,16028.83984
2023-03-04T20:15:20.539Z,20575.54297
2023-03-04T20:30:22.965Z,30425.88672
2023-03-04T20:45:25.359Z,15791.74219
2023-03-04T21:00:27.941Z,25694.07031
2023-03-04T21:15:31.016Z,11829.54297
2023-03-04T21:30:33.252Z,12282.18457
2023-03-04T21:45:35.485Z,25823.39648
2023-03-04T22:00:38.043Z,20140.65234
2023-03-04T22:15:40.333Z,24623.95898
2023-03-04T22:30:42.582Z,27542.67383
2023-03-04T22:45:44.920Z,27301.77344
2023-03-04T23:00:47.161Z,23227.99805
2023-03-04T23:15:49.650Z,8099.36963
2023-03-04T23:30:52.130Z,5178.11914
2023-03-04T23:45:54.645Z,4073.7749
